createdAt,value
2019-01-04T12:49:42.432Z,16.37
2019-01-04T12:52:08.831Z,21.13
2019-01-04T12:54:35.230Z,17.20
2019-01-04T12:57:01.647Z,14.83
2019-01-04T12:59:28.230Z,19.47
2019-01-04T13:01:54.625Z,13.20
2019-01-04T13:04:21.111Z,16.10
2019-01-04T13:06:47.605Z,17.37
2019-01-04T13:09:13.974Z,17.47
2019-01-04T13:11:40.376Z,18.73
2019-01-04T13:14:07.612Z,14.33
2019-01-04T13:16:34.129Z,18.70
2019-01-04T13:19:00.626Z,17.23
2019-01-04T13:21:27.163Z,20.07
2019-01-04T13:23:53.656Z,16.63
2019-01-04T13:26:20.123Z,16.50
2019-01-04T13:28:46.504Z,19.93
2019-01-04T13:31:15.672Z,15.77
2019-01-04T13:33:42.283Z,17.53
2019-01-04T13:36:08.781Z,17.03
2019-01-04T13:38:35.304Z,14.90
2019-01-04T13:41:01.776Z,11.37
2019-01-04T13:43:28.260Z,16.23
2019-01-04T13:45:54.734Z,16.83
2019-01-04T13:48:21.334Z,16.23
2019-01-04T13:50:47.933Z,14.37
2019-01-04T13:53:14.388Z,14.93
2019-01-04T13:55:40.861Z,17.97
2019-01-04T13:58:07.347Z,16.33
2019-01-04T14:00:33.816Z,16.97
2019-01-04T14:03:00.275Z,17.47
2019-01-04T14:05:26.860Z,12.77
2019-01-04T14:07:53.327Z,15.83
2019-01-04T14:10:19.836Z,13.40
2019-01-04T14:12:46.320Z,14.63
2019-01-04T14:15:12.835Z,15.77
2019-01-04T14:17:39.392Z,17.20
2019-01-04T14:20:06.296Z,17.23
2019-01-04T14:22:32.769Z,11.97
2019-01-04T14:24:59.265Z,14.00
2019-01-04T14:27:25.716Z,10.80
2019-01-04T14:29:52.201Z,14.37
2019-01-04T14:32:18.655Z,15.20
2019-01-04T14:34:45.127Z,10.33
2019-01-04T14:37:11.579Z,14.43
2019-01-04T14:39:38.344Z,10.80
2019-01-04T14:42:04.913Z,12.57
2019-01-04T14:44:31.499Z,16.93
2019-01-04T14:46:58.072Z,12.20
2019-01-04T14:49:25.953Z,14.27
2019-01-04T14:51:52.343Z,13.77
2019-01-04T14:54:18.797Z,13.50
2019-01-04T14:56:45.198Z,21.23
2019-01-04T14:59:11.693Z,13.80
2019-01-04T15:01:38.189Z,15.53
2019-01-04T15:04:04.756Z,12.03
2019-01-04T15:06:31.235Z,15.27
2019-01-04T15:08:57.686Z,19.23
2019-01-04T15:11:24.199Z,14.80
2019-01-04T15:13:50.761Z,14.30
2019-01-04T15:16:17.236Z,15.70
2019-01-04T15:18:43.807Z,13.43
2019-01-04T15:21:10.400Z,16.10
2019-01-04T15:23:36.955Z,12.40
2019-01-04T15:26:03.455Z,13.70
2019-01-04T15:28:30.008Z,17.50
2019-01-04T15:30:56.580Z,14.73
2019-01-04T15:33:23.040Z,16.27
2019-01-04T15:35:49.936Z,16.80
2019-01-04T15:38:16.421Z,17.33
2019-01-04T15:40:42.864Z,17.70
2019-01-04T15:43:09.469Z,14.47
2019-01-04T15:45:35.832Z,18.20
2019-01-04T15:48:02.315Z,16.23
2019-01-04T15:50:28.880Z,19.83
2019-01-04T15:52:55.271Z,17.57
2019-01-04T15:55:21.736Z,18.07
2019-01-04T15:57:48.136Z,17.23
2019-01-04T16:00:14.703Z,18.93
2019-01-04T16:02:41.561Z,16.67
2019-01-04T16:05:08.628Z,17.57
2019-01-04T16:07:35.208Z,18.50
2019-01-04T16:10:01.694Z,21.70
2019-01-04T16:12:28.318Z,17.70
2019-01-04T16:14:54.883Z,22.33
2019-01-04T16:17:21.435Z,21.00
2019-01-04T16:19:47.916Z,22.87
2019-01-04T16:22:14.378Z,18.90
2019-01-04T16:24:40.764Z,20.20
2019-01-04T16:27:07.107Z,20.53
2019-01-04T16:29:33.500Z,21.20
2019-01-04T16:32:00.051Z,21.40
2019-01-04T16:34:26.648Z,21.13
2019-01-04T16:36:53.126Z,23.43
2019-01-04T16:39:19.699Z,21.53
2019-01-04T16:41:47.198Z,24.20
2019-01-04T16:44:13.857Z,21.40
2019-01-04T16:46:40.229Z,22.93
2019-01-04T16:49:06.700Z,21.23
2019-01-04T16:51:33.290Z,19.93
2019-01-04T16:53:59.959Z,22.77
2019-01-04T16:56:26.646Z,18.40
2019-01-04T16:58:53.041Z,24.40
2019-01-04T17:01:20.336Z,19.80
2019-01-04T17:03:46.805Z,23.47
2019-01-04T17:06:13.276Z,28.17
2019-01-04T17:08:39.831Z,25.63
2019-01-04T17:11:06.437Z,21.90
2019-01-04T17:13:32.850Z,26.00
2019-01-04T17:15:59.415Z,21.60
2019-01-04T17:18:25.960Z,24.77
2019-01-04T17:20:52.336Z,23.57
2019-01-04T17:23:18.827Z,22.27
2019-01-04T17:25:45.429Z,24.70
2019-01-04T17:28:11.815Z,23.87
2019-01-04T17:30:39.032Z,17.73
2019-01-04T17:33:05.405Z,26.40
2019-01-04T17:35:31.773Z,31.63
2019-01-04T17:37:58.267Z,22.90
2019-01-04T17:40:24.727Z,23.00
2019-01-04T17:42:51.343Z,23.63
2019-01-04T17:45:17.891Z,26.77
2019-01-04T17:47:44.368Z,20.43
2019-01-04T17:50:10.851Z,20.37
2019-01-04T17:52:37.420Z,26.30
2019-01-04T17:55:04.278Z,21.50
2019-01-04T17:57:30.304Z,20.07
2019-01-04T17:59:57.451Z,17.77
2019-01-04T18:02:23.974Z,17.80
2019-01-04T18:04:50.364Z,18.40
2019-01-04T18:07:16.925Z,18.63
2019-01-04T18:09:43.389Z,15.93
2019-01-04T18:12:09.870Z,21.13
2019-01-04T18:14:36.347Z,21.60
2019-01-04T18:17:02.700Z,21.20
2019-01-04T18:19:29.342Z,23.13
2019-01-04T18:21:55.799Z,24.93
2019-01-04T18:24:22.381Z,24.57
2019-01-04T18:26:48.731Z,23.80
2019-01-04T18:29:15.222Z,21.20
2019-01-04T18:31:41.689Z,22.03
2019-01-04T18:34:08.157Z,21.20
2019-01-04T18:36:34.619Z,18.07
2019-01-04T18:39:01.092Z,18.63
2019-01-04T18:41:27.453Z,21.07
2019-01-04T18:43:53.861Z,24.47
2019-01-04T18:46:20.411Z,22.27
2019-01-04T18:48:46.839Z,21.27
2019-01-04T18:51:13.425Z,19.20
2019-01-04T18:53:39.896Z,16.60
2019-01-04T18:56:06.362Z,22.23
2019-01-04T18:58:32.822Z,14.77
2019-01-04T19:00:59.232Z,18.70
2019-01-04T19:03:25.582Z,17.50
2019-01-04T19:05:52.087Z,16.83
2019-01-04T19:08:18.650Z,19.03
2019-01-04T19:10:45.127Z,17.70
2019-01-04T19:13:11.513Z,16.60
2019-01-04T19:15:37.994Z,16.60
2019-01-04T19:18:04.436Z,18.33
2019-01-04T19:20:30.908Z,16.27
2019-01-04T19:22:57.483Z,16.37
2019-01-04T19:25:23.855Z,19.03
2019-01-04T19:27:50.413Z,12.17
2019-01-04T19:30:16.972Z,16.93
2019-01-04T19:32:43.458Z,18.23
2019-01-04T19:35:10.016Z,14.57
2019-01-04T19:37:36.493Z,12.13
2019-01-04T19:40:03.172Z,17.43
2019-01-04T19:42:29.641Z,18.57
2019-01-04T19:44:56.096Z,20.30
2019-01-04T19:47:22.589Z,15.93
2019-01-04T19:49:49.170Z,18.70
2019-01-04T19:52:15.558Z,20.20
2019-01-04T19:54:42.008Z,21.37
2019-01-04T19:57:08.596Z,15.97
2019-01-04T19:59:35.152Z,19.43
2019-01-04T20:02:01.621Z,22.20
2019-01-04T20:04:28.090Z,18.23
2019-01-04T20:06:58.312Z,22.53
2019-01-04T20:09:28.481Z,20.10
2019-01-04T20:11:58.640Z,21.40
2019-01-04T20:14:28.890Z,20.50
2019-01-04T20:16:57.251Z,22.23
2019-01-04T20:19:25.751Z,22.03
2019-01-04T20:22:28.248Z,26.87
2019-01-04T20:25:02.436Z,21.13
2019-01-04T20:27:31.059Z,20.60
2019-01-04T20:29:59.407Z,21.10
2019-01-04T20:32:27.780Z,19.97
2019-01-04T20:34:56.194Z,22.13
2019-01-04T20:37:24.540Z,17.27
2019-01-04T20:39:52.946Z,22.23
2019-01-04T20:42:21.330Z,21.97
2019-01-04T20:44:49.735Z,19.80
2019-01-04T20:47:18.088Z,20.90
2019-01-04T20:49:46.530Z,19.33
2019-01-04T20:52:14.899Z,22.73
2019-01-04T20:54:43.167Z,22.73
2019-01-04T20:57:11.416Z,19.33
2019-01-04T20:59:39.811Z,25.37
2019-01-04T21:02:08.176Z,23.30
2019-01-04T21:04:36.584Z,23.23
2019-01-04T21:07:04.932Z,21.80
2019-01-04T21:10:10.444Z,25.07
2019-01-04T21:12:40.633Z,22.67
2019-01-04T21:15:09.140Z,24.07
2019-01-04T21:17:37.515Z,22.30
2019-01-04T21:20:05.144Z,20.47
2019-01-04T21:22:33.503Z,22.10
2019-01-04T21:25:01.875Z,24.80
2019-01-04T21:27:30.263Z,21.57
2019-01-04T21:29:58.525Z,23.90
2019-01-04T21:32:26.803Z,23.07
2019-01-04T21:34:55.055Z,26.37
2019-01-04T21:37:23.460Z,24.47
2019-01-04T21:39:51.812Z,22.30
2019-01-04T21:42:20.096Z,19.73
2019-01-04T21:44:48.461Z,23.37
2019-01-04T21:47:16.852Z,23.10
2019-01-04T21:49:45.221Z,23.70
2019-01-04T21:52:13.612Z,21.27
2019-01-04T21:54:41.970Z,18.27
2019-01-04T21:57:10.225Z,21.70
2019-01-04T21:59:38.617Z,20.07
2019-01-04T22:02:06.981Z,20.33
2019-01-04T22:04:35.396Z,23.13
2019-01-04T22:07:03.755Z,19.10
2019-01-04T22:09:32.171Z,18.17
2019-01-04T22:12:00.525Z,19.73
2019-01-04T22:14:28.992Z,21.43
2019-01-04T22:16:57.243Z,20.43
2019-01-04T22:19:25.526Z,19.40
2019-01-04T22:21:53.975Z,20.87
2019-01-04T22:24:22.378Z,20.13
2019-01-04T22:26:50.748Z,19.60
2019-01-04T22:29:19.137Z,21.50
2019-01-04T22:31:47.544Z,21.13
2019-01-04T22:34:15.939Z,18.27
2019-01-04T22:36:44.317Z,17.10
2019-01-04T22:39:12.717Z,17.87
2019-01-04T22:41:41.081Z,20.23
2019-01-04T22:44:09.496Z,18.97
2019-01-04T22:46:37.855Z,18.93
2019-01-04T22:49:06.235Z,18.37
2019-01-04T22:51:34.642Z,16.77
2019-01-04T22:54:02.909Z,12.27
2019-01-04T22:56:31.181Z,20.40
2019-01-04T22:58:59.537Z,16.63
2019-01-04T23:01:27.923Z,17.43
2019-01-04T23:03:56.276Z,16.23
2019-01-04T23:06:24.553Z,15.87
2019-01-04T23:08:52.804Z,16.87
2019-01-04T23:11:21.204Z,12.03
2019-01-04T23:13:49.604Z,16.47
2019-01-04T23:16:18.004Z,13.83
2019-01-04T23:18:46.264Z,13.83
2019-01-04T23:21:16.455Z,15.53
2019-01-04T23:23:44.833Z,17.03
2019-01-04T23:26:19.289Z,19.23
2019-01-04T23:28:43.421Z,16.40
2019-01-04T23:31:11.816Z,14.93
2019-01-04T23:33:40.173Z,15.33
2019-01-04T23:36:08.565Z,16.27
2019-01-04T23:38:36.929Z,15.60
2019-01-04T23:41:05.325Z,16.43
2019-01-04T23:43:35.496Z,17.10
2019-01-04T23:46:03.896Z,17.87
2019-01-04T23:48:32.251Z,15.47
2019-01-04T23:51:00.612Z,14.53
2019-01-04T23:53:28.999Z,15.87
2019-01-04T23:55:57.258Z,15.80
2019-01-04T23:58:25.658Z,16.33
